Time;durP1;ratioP1;P1;durP2;ratioP2;P2;SDS_P1;SDS_P2;PMS_P1;PMS_P2;Temp;Humidity;BMP_temperature;BMP_pressure;BME280_temperature;BME280_humidity;BME280_pressure;Samples;Min_cycle;Max_cycle;Signal;HPM_P1;HPM_P2
2024/03/02 00:00:58;;;;;;;13.32;11.02;;;;;;;;;;4941249;29;20211;-86
2024/03/02 00:03:26;;;;;;;14.85;10.50;;;;;;;;;;4934403;29;20239;-86
2024/03/02 00:05:55;;;;;;;14.20;10.30;;;;;;;;;;4936927;29;20259;-85
2024/03/02 00:08:26;;;;;;;12.60;9.80;;;;;;;;;;4934003;29;20215;-86
2024/03/02 00:10:59;;;;;;;14.45;10.65;;;;;;;;;;4935488;29;20220;-83
2024/03/02 00:13:28;;;;;;;26.95;15.50;;;;;;;;;;4943496;29;20264;-85
2024/03/02 00:15:58;;;;;;;15.85;11.05;;;;;;;;;;4934332;29;20209;-86
2024/03/02 00:18:28;;;;;;;12.55;10.35;;;;;;;;;;4935020;29;20213;-86
2024/03/02 00:20:57;;;;;;;12.85;9.90;;;;;;;;;;4934198;29;20216;-84
2024/03/02 00:23:28;;;;;;;12.43;8.73;;;;;;;;;;4925839;29;20205;-84
2024/03/02 00:25:57;;;;;;;11.10;9.15;;;;;;;;;;4925493;29;20216;-84
2024/03/02 00:28:26;;;;;;;11.00;9.82;;;;;;;;;;4937981;29;20220;-84
2024/03/02 00:31:04;;;;;;;11.02;9.43;;;;;;;;;;4940629;29;20778;-83
2024/03/02 00:33:33;;;;;;;10.27;8.75;;;;;;;;;;4932216;29;20204;-84
2024/03/02 00:36:01;;;;;;;14.90;10.48;;;;;;;;;;4923174;29;20223;-85
2024/03/02 00:38:30;;;;;;;13.25;9.73;;;;;;;;;;4933565;29;20208;-86
2024/03/02 00:41:00;;;;;;;13.90;10.15;;;;;;;;;;4941573;29;20208;-86
2024/03/02 00:43:42;;;;;;;13.93;10.40;;;;;;;;;;4918804;29;20216;-86
2024/03/02 00:46:16;;;;;;;13.25;11.13;;;;;;;;;;4942980;29;20730;-86
2024/03/02 00:48:50;;;;;;;12.77;10.35;;;;;;;;;;4916209;29;20223;-83
2024/03/02 00:51:19;;;;;;;11.20;9.85;;;;;;;;;;4945799;29;20231;-83
2024/03/02 00:53:48;;;;;;;12.60;11.13;;;;;;;;;;4936591;29;20263;-83
2024/03/02 00:56:16;;;;;;;13.35;11.15;;;;;;;;;;4941482;29;20213;-84
2024/03/02 00:58:45;;;;;;;13.10;11.02;;;;;;;;;;4936822;29;20232;-84
2024/03/02 01:01:16;;;;;;;16.73;11.38;;;;;;;;;;4938789;29;20678;-84
2024/03/02 01:03:44;;;;;;;13.75;11.15;;;;;;;;;;4938409;29;20295;-84
2024/03/02 01:06:13;;;;;;;13.90;11.55;;;;;;;;;;4938011;29;20295;-83
2024/03/02 01:08:41;;;;;;;11.48;10.20;;;;;;;;;;4938190;29;20208;-86
2024/03/02 01:11:10;;;;;;;11.90;10.32;;;;;;;;;;4927771;29;20213;-84
2024/03/02 01:13:39;;;;;;;11.70;10.43;;;;;;;;;;4938487;29;20209;-84
2024/03/02 01:16:10;;;;;;;12.57;9.88;;;;;;;;;;4935920;29;20213;-85
2024/03/02 01:18:46;;;;;;;13.52;10.15;;;;;;;;;;4937722;29;20201;-86
2024/03/02 01:21:16;;;;;;;12.52;10.55;;;;;;;;;;4910664;29;20261;-87
2024/03/02 01:23:46;;;;;;;15.85;11.05;;;;;;;;;;4934138;29;20212;-86
2024/03/02 01:26:15;;;;;;;13.38;11.80;;;;;;;;;;4911117;29;20209;-86
2024/03/02 01:28:44;;;;;;;12.27;10.98;;;;;;;;;;4922233;29;20216;-86
2024/03/02 01:31:14;;;;;;;16.48;12.65;;;;;;;;;;4948930;29;20267;-86
2024/03/02 01:33:44;;;;;;;14.55;11.60;;;;;;;;;;4922967;29;20224;-86
2024/03/02 01:36:14;;;;;;;14.18;10.98;;;;;;;;;;4938623;29;20500;-84
2024/03/02 01:38:43;;;;;;;15.85;12.20;;;;;;;;;;4935544;29;20212;-85
2024/03/02 01:41:12;;;;;;;12.80;11.45;;;;;;;;;;4936120;29;20205;-86
2024/03/02 01:43:41;;;;;;;12.90;10.50;;;;;;;;;;4937601;29;20212;-86
2024/03/02 01:46:10;;;;;;;10.18;9.07;;;;;;;;;;4931093;29;20213;-85
2024/03/02 01:48:39;;;;;;;9.00;8.10;;;;;;;;;;4938553;29;20660;-85
2024/03/02 01:51:10;;;;;;;12.38;9.90;;;;;;;;;;4921980;29;20296;-85
2024/03/02 01:53:43;;;;;;;11.10;8.80;;;;;;;;;;4910155;29;20278;-86
2024/03/02 01:56:11;;;;;;;10.63;8.80;;;;;;;;;;4935801;29;20219;-85
2024/03/02 01:58:40;;;;;;;11.25;8.80;;;;;;;;;;4933199;29;20315;-87
2024/03/02 02:01:10;;;;;;;12.77;9.73;;;;;;;;;;4938487;29;20204;-85
2024/03/02 02:03:40;;;;;;;13.82;11.05;;;;;;;;;;4941745;29;20688;-86
2024/03/02 02:06:11;;;;;;;13.05;9.90;;;;;;;;;;4950263;29;20247;-86
2024/03/02 02:08:40;;;;;;;11.00;9.50;;;;;;;;;;4937327;29;20213;-83
2024/03/02 02:11:09;;;;;;;9.98;8.55;;;;;;;;;;4944882;29;20208;-85
2024/03/02 02:13:38;;;;;;;11.40;9.10;;;;;;;;;;4939492;29;20235;-84
2024/03/02 02:16:07;;;;;;;10.88;8.65;;;;;;;;;;4936103;29;20668;-85
2024/03/02 02:18:36;;;;;;;13.05;7.63;;;;;;;;;;4935341;29;20212;-86
2024/03/02 02:21:10;;;;;;;8.02;7.18;;;;;;;;;;4931818;29;20212;-85
2024/03/02 02:23:40;;;;;;;11.25;8.73;;;;;;;;;;4931325;29;20201;-84
2024/03/02 02:26:08;;;;;;;11.60;8.50;;;;;;;;;;4921837;29;20243;-86
2024/03/02 02:28:36;;;;;;;9.48;8.48;;;;;;;;;;4915823;29;20212;-85
2024/03/02 02:31:05;;;;;;;10.80;8.35;;;;;;;;;;4932721;29;20212;-84
2024/03/02 02:33:34;;;;;;;9.40;8.48;;;;;;;;;;4930570;29;20715;-84
2024/03/02 02:36:02;;;;;;;11.18;9.70;;;;;;;;;;4935979;29;20295;-85
2024/03/02 02:38:30;;;;;;;10.18;8.45;;;;;;;;;;4927745;29;20209;-84
2024/03/02 02:41:00;;;;;;;9.85;8.85;;;;;;;;;;4936900;29;20207;-84
2024/03/02 02:43:28;;;;;;;11.57;9.68;;;;;;;;;;4927980;29;20204;-84
2024/03/02 02:45:56;;;;;;;10.88;9.77;;;;;;;;;;4936842;29;20634;-84
2024/03/02 02:48:25;;;;;;;11.63;9.85;;;;;;;;;;4938640;29;20739;-86
2024/03/02 02:50:53;;;;;;;13.80;10.18;;;;;;;;;;4946537;29;20222;-85
2024/03/02 02:53:21;;;;;;;14.30;9.85;;;;;;;;;;4937038;29;20235;-85
2024/03/02 02:55:50;;;;;;;12.90;9.45;;;;;;;;;;4943424;29;20208;-85
2024/03/02 02:58:20;;;;;;;14.75;10.90;;;;;;;;;;4931709;29;20239;-86
2024/03/02 03:00:48;;;;;;;12.52;10.13;;;;;;;;;;4919870;29;20267;-85
2024/03/02 03:03:17;;;;;;;11.82;9.68;;;;;;;;;;4947639;29;20209;-85
2024/03/02 03:05:45;;;;;;;12.63;10.52;;;;;;;;;;4925622;29;20218;-84
2024/03/02 03:08:13;;;;;;;15.05;11.30;;;;;;;;;;4918909;29;20231;-85
2024/03/02 03:10:42;;;;;;;14.60;11.38;;;;;;;;;;4933646;29;20691;-85
2024/03/02 03:13:10;;;;;;;12.63;10.80;;;;;;;;;;4934429;29;20224;-85
2024/03/02 03:15:40;;;;;;;15.55;11.65;;;;;;;;;;4928602;29;20686;-85
2024/03/02 03:18:10;;;;;;;14.85;12.40;;;;;;;;;;4937444;29;20216;-85
2024/03/02 03:20:38;;;;;;;12.73;11.10;;;;;;;;;;4934058;29;20263;-85
2024/03/02 03:23:07;;;;;;;15.23;11.55;;;;;;;;;;4908477;29;20217;-84
2024/03/02 03:25:35;;;;;;;13.40;10.85;;;;;;;;;;4927480;29;20685;-83
2024/03/02 03:28:03;;;;;;;14.68;11.77;;;;;;;;;;4932720;29;20204;-85
2024/03/02 03:30:32;;;;;;;13.95;11.65;;;;;;;;;;4916745;29;20677;-84
2024/03/02 03:33:01;;;;;;;18.83;12.13;;;;;;;;;;4922191;29;20233;-86
2024/03/02 03:35:30;;;;;;;15.95;12.88;;;;;;;;;;4921823;29;20672;-85
2024/03/02 03:37:59;;;;;;;15.65;11.40;;;;;;;;;;4934400;29;20337;-85
2024/03/02 03:40:27;;;;;;;11.90;10.65;;;;;;;;;;4902827;29;20216;-85
2024/03/02 03:42:56;;;;;;;17.95;10.52;;;;;;;;;;4943677;29;20212;-85
2024/03/02 03:45:25;;;;;;;15.48;11.88;;;;;;;;;;4929745;29;20738;-86
2024/03/02 03:47:54;;;;;;;14.18;11.48;;;;;;;;;;4926069;29;20212;-84
2024/03/02 03:50:23;;;;;;;13.00;11.60;;;;;;;;;;4934131;29;20212;-85
2024/03/02 03:52:52;;;;;;;14.35;11.57;;;;;;;;;;4942189;29;20224;-85
2024/03/02 03:55:20;;;;;;;13.05;11.32;;;;;;;;;;4935405;29;20652;-84
2024/03/02 03:57:49;;;;;;;13.73;12.32;;;;;;;;;;4922467;29;20263;-86
2024/03/02 04:00:17;;;;;;;12.30;11.00;;;;;;;;;;4933017;29;20219;-85
2024/03/02 04:02:46;;;;;;;13.57;10.40;;;;;;;;;;4934515;29;20259;-85
2024/03/02 04:05:14;;;;;;;11.23;9.48;;;;;;;;;;4922284;29;20271;-85
2024/03/02 04:07:44;;;;;;;13.82;11.10;;;;;;;;;;4934585;29;20216;-85
2024/03/02 04:10:12;;;;;;;15.32;9.88;;;;;;;;;;4939180;29;20204;-85
2024/03/02 04:12:41;;;;;;;12.90;9.90;;;;;;;;;;4922263;29;20704;-85
2024/03/02 04:15:09;;;;;;;11.70;10.48;;;;;;;;;;4917230;29;20212;-85
2024/03/02 04:17:38;;;;;;;12.80;9.30;;;;;;;;;;4934002;29;20219;-85
2024/03/02 04:20:07;;;;;;;12.60;10.05;;;;;;;;;;4940849;29;20217;-85
2024/03/02 04:22:36;;;;;;;11.23;9.77;;;;;;;;;;4908753;29;20571;-86
2024/03/02 04:25:07;;;;;;;11.40;9.75;;;;;;;;;;4948304;29;20216;-85
2024/03/02 04:27:35;;;;;;;10.40;9.40;;;;;;;;;;4939193;29;20220;-85
2024/03/02 04:30:04;;;;;;;10.93;9.73;;;;;;;;;;4933517;29;20208;-84
2024/03/02 04:32:33;;;;;;;15.10;9.93;;;;;;;;;;4919890;29;20212;-84
2024/03/02 04:35:01;;;;;;;12.15;9.93;;;;;;;;;;4933099;29;20223;-83
2024/03/02 04:37:30;;;;;;;12.52;10.48;;;;;;;;;;4944283;29;20690;-83
2024/03/02 04:39:59;;;;;;;15.10;11.38;;;;;;;;;;4931901;29;20208;-82
2024/03/02 04:42:28;;;;;;;13.35;9.98;;;;;;;;;;4941196;29;20221;-83
2024/03/02 04:44:57;;;;;;;14.30;10.77;;;;;;;;;;4924778;29;20204;-84
2024/03/02 04:47:25;;;;;;;12.15;10.55;;;;;;;;;;4925677;29;20201;-83
2024/03/02 04:49:54;;;;;;;16.70;12.30;;;;;;;;;;4924735;29;20652;-82
2024/03/02 04:52:24;;;;;;;13.85;11.15;;;;;;;;;;4933432;29;20209;-83
2024/03/02 04:55:19;;;;;;;16.45;11.45;;;;;;;;;;4934799;29;20224;-84
2024/03/02 04:57:50;;;;;;;16.02;12.38;;;;;;;;;;4924529;29;20248;-84
2024/03/02 05:00:19;;;;;;;15.13;10.82;;;;;;;;;;4943034;29;20204;-84
2024/03/02 05:02:47;;;;;;;16.52;10.38;;;;;;;;;;4943380;29;20209;-84
2024/03/02 05:05:16;;;;;;;16.15;11.32;;;;;;;;;;4942371;29;20222;-85
2024/03/02 05:07:44;;;;;;;15.75;11.05;;;;;;;;;;4936534;29;20228;-85
2024/03/02 05:10:12;;;;;;;15.68;12.38;;;;;;;;;;4928639;29;20216;-85
2024/03/02 05:12:59;;;;;;;11.85;9.80;;;;;;;;;;4937019;29;20676;-84
2024/03/02 05:15:29;;;;;;;13.65;11.05;;;;;;;;;;4935002;29;20215;-84
2024/03/02 05:17:59;;;;;;;16.67;11.20;;;;;;;;;;4942224;29;20275;-84
2024/03/02 05:20:27;;;;;;;13.70;10.90;;;;;;;;;;4937706;29;20204;-84
2024/03/02 05:22:56;;;;;;;15.43;11.40;;;;;;;;;;4929201;29;20688;-84
2024/03/02 05:25:24;;;;;;;17.98;11.15;;;;;;;;;;4922861;29;20271;-85
2024/03/02 05:27:52;;;;;;;12.32;10.57;;;;;;;;;;4940438;29;20213;-85
2024/03/02 05:30:21;;;;;;;13.50;10.70;;;;;;;;;;4943097;29;20222;-84
2024/03/02 05:32:53;;;;;;;19.90;14.02;;;;;;;;;;4937214;29;20208;-84
2024/03/02 05:35:21;;;;;;;14.10;10.65;;;;;;;;;;4917420;29;20206;-84
2024/03/02 05:37:50;;;;;;;12.43;11.13;;;;;;;;;;4937504;29;20208;-84
2024/03/02 05:40:18;;;;;;;14.95;11.48;;;;;;;;;;4943068;29;20208;-84
2024/03/02 05:42:47;;;;;;;16.55;13.05;;;;;;;;;;4922587;29;20710;-83
2024/03/02 05:45:16;;;;;;;14.93;12.93;;;;;;;;;;4942029;29;20208;-83
2024/03/02 05:47:44;;;;;;;15.82;12.85;;;;;;;;;;4927637;29;20224;-85
2024/03/02 05:50:14;;;;;;;15.70;12.82;;;;;;;;;;4943064;29;20211;-84
2024/03/02 05:52:43;;;;;;;14.15;12.30;;;;;;;;;;4927749;29;20217;-84
2024/03/02 05:55:11;;;;;;;16.95;11.75;;;;;;;;;;4938134;29;20730;-84
2024/03/02 05:57:55;;;;;;;17.83;12.77;;;;;;;;;;4941748;29;20235;-83
2024/03/02 06:00:23;;;;;;;19.27;12.43;;;;;;;;;;4924399;29;20211;-83
2024/03/02 06:02:52;;;;;;;14.68;11.70;;;;;;;;;;4947305;29;20212;-84
2024/03/02 06:05:22;;;;;;;16.17;10.88;;;;;;;;;;4943712;29;20204;-85
2024/03/02 06:07:50;;;;;;;14.15;10.77;;;;;;;;;;4943198;29;20687;-84
2024/03/02 06:10:18;;;;;;;13.68;10.90;;;;;;;;;;4937773;29;20743;-84
2024/03/02 06:12:47;;;;;;;12.23;10.57;;;;;;;;;;4936300;29;20227;-85
2024/03/02 06:15:15;;;;;;;16.92;11.30;;;;;;;;;;4922932;29;20232;-85
2024/03/02 06:17:44;;;;;;;11.80;10.60;;;;;;;;;;4925158;29;20275;-85
2024/03/02 06:20:13;;;;;;;15.18;11.90;;;;;;;;;;4935864;29;20224;-85
2024/03/02 06:22:42;;;;;;;14.32;11.68;;;;;;;;;;4936734;29;20219;-85
2024/03/02 06:25:11;;;;;;;12.77;10.25;;;;;;;;;;4924584;29;20208;-85
2024/03/02 06:27:39;;;;;;;15.43;11.40;;;;;;;;;;4949664;29;20212;-85
2024/03/02 06:30:08;;;;;;;15.73;10.88;;;;;;;;;;4936204;29;20209;-85
2024/03/02 06:32:36;;;;;;;14.95;10.38;;;;;;;;;;4935365;29;20240;-85
2024/03/02 06:35:08;;;;;;;12.27;10.15;;;;;;;;;;4941955;29;20234;-85
2024/03/02 06:37:36;;;;;;;11.93;9.02;;;;;;;;;;4931093;29;20265;-83
2024/03/02 06:40:07;;;;;;;12.07;9.73;;;;;;;;;;4928278;29;20234;-88
2024/03/02 06:42:35;;;;;;;11.38;9.80;;;;;;;;;;4933574;29;20222;-88
2024/03/02 06:45:04;;;;;;;11.60;9.25;;;;;;;;;;4936508;29;20220;-87
2024/03/02 06:47:33;;;;;;;12.25;10.77;;;;;;;;;;4939582;29;20220;-89
2024/03/02 06:50:02;;;;;;;11.50;9.50;;;;;;;;;;4926421;29;20209;-88
2024/03/02 06:52:30;;;;;;;15.07;10.27;;;;;;;;;;4935631;29;20220;-89
2024/03/02 06:54:58;;;;;;;12.73;9.98;;;;;;;;;;4903600;29;20624;-86
2024/03/02 06:57:28;;;;;;;12.75;10.45;;;;;;;;;;4926062;29;20955;-88
2024/03/02 06:59:58;;;;;;;13.43;10.38;;;;;;;;;;4931570;29;20664;-89
2024/03/02 07:02:26;;;;;;;13.70;10.63;;;;;;;;;;4933746;29;20872;-83
2024/03/02 07:04:55;;;;;;;11.98;10.43;;;;;;;;;;4943455;29;20212;-84
2024/03/02 07:07:23;;;;;;;11.90;10.52;;;;;;;;;;4932434;29;20213;-84
2024/03/02 07:09:52;;;;;;;13.25;10.45;;;;;;;;;;4933886;29;20211;-83
2024/03/02 07:12:20;;;;;;;15.13;12.18;;;;;;;;;;4933236;29;20569;-82
2024/03/02 07:17:51;;;;;;;18.52;14.25;;;;;;;;;;4912237;29;20213;-82
2024/03/02 07:20:19;;;;;;;14.23;12.40;;;;;;;;;;4902656;29;20681;-83
2024/03/02 07:22:47;;;;;;;13.40;11.38;;;;;;;;;;4922449;29;20201;-81
2024/03/02 07:25:16;;;;;;;11.32;9.60;;;;;;;;;;4931600;29;20200;-82
2024/03/02 07:27:44;;;;;;;11.70;10.38;;;;;;;;;;4922724;29;20255;-83
2024/03/02 07:30:17;;;;;;;11.90;9.55;;;;;;;;;;4904222;29;20213;-84
2024/03/02 07:32:45;;;;;;;10.45;9.15;;;;;;;;;;4945388;29;20911;-84
2024/03/02 07:35:14;;;;;;;10.00;9.00;;;;;;;;;;4902445;29;20233;-84
2024/03/02 07:37:43;;;;;;;8.93;8.02;;;;;;;;;;4936807;29;20213;-83
2024/03/02 07:40:12;;;;;;;8.57;7.68;;;;;;;;;;4932916;29;20599;-81
2024/03/02 07:42:40;;;;;;;7.82;7.03;;;;;;;;;;4925136;29;20221;-80
2024/03/02 07:45:08;;;;;;;7.22;6.45;;;;;;;;;;4931627;29;20200;-82
2024/03/02 07:50:41;;;;;;;12.52;7.93;;;;;;;;;;4928289;29;20737;-86
2024/03/02 07:53:12;;;;;;;11.82;8.13;;;;;;;;;;4907367;29;20214;-86
2024/03/02 07:55:40;;;;;;;9.50;8.48;;;;;;;;;;4938525;29;20696;-83
2024/03/02 07:58:11;;;;;;;10.80;9.40;;;;;;;;;;4920414;29;20245;-87
2024/03/02 08:00:40;;;;;;;9.20;8.30;;;;;;;;;;4913033;29;20201;-85
2024/03/02 08:03:12;;;;;;;11.38;8.15;;;;;;;;;;4920672;29;20586;-86
2024/03/02 08:05:41;;;;;;;10.93;8.25;;;;;;;;;;4918099;28;20589;-85
2024/03/02 08:08:09;;;;;;;10.25;8.20;;;;;;;;;;4937430;29;20212;-80
2024/03/02 08:10:53;;;;;;;10.60;8.65;;;;;;;;;;4926119;29;20209;-81
2024/03/02 08:13:21;;;;;;;9.73;8.70;;;;;;;;;;4918506;29;20703;-84
2024/03/02 08:15:50;;;;;;;10.98;9.88;;;;;;;;;;4935150;29;20224;-86
2024/03/02 08:18:20;;;;;;;10.98;9.43;;;;;;;;;;4934165;29;20208;-86
2024/03/02 08:20:48;;;;;;;9.63;8.60;;;;;;;;;;4908072;29;20213;-83
2024/03/02 08:23:40;;;;;;;9.38;7.85;;;;;;;;;;4940971;29;20220;-79
2024/03/02 08:26:09;;;;;;;8.65;7.38;;;;;;;;;;4929665;29;20692;-87
2024/03/02 08:28:40;;;;;;;10.52;8.52;;;;;;;;;;4913281;29;20213;-88
2024/03/02 08:31:08;;;;;;;9.38;8.30;;;;;;;;;;4935665;29;20204;-87
2024/03/02 08:33:38;;;;;;;9.85;7.65;;;;;;;;;;4935171;29;20627;-87
2024/03/02 08:36:07;;;;;;;7.70;7.10;;;;;;;;;;4910673;29;20233;-85
2024/03/02 08:38:35;;;;;;;8.20;7.35;;;;;;;;;;4935685;29;20208;-87
2024/03/02 08:41:07;;;;;;;10.45;7.22;;;;;;;;;;4935973;29;20216;-85
2024/03/02 08:43:38;;;;;;;8.55;7.75;;;;;;;;;;4906257;29;20211;-86
2024/03/02 08:46:07;;;;;;;8.45;7.75;;;;;;;;;;4925670;29;20268;-84
2024/03/02 08:48:35;;;;;;;10.27;6.25;;;;;;;;;;4946481;29;20221;-87
2024/03/02 08:51:07;;;;;;;7.60;6.90;;;;;;;;;;4917239;29;20680;-87
2024/03/02 08:53:39;;;;;;;6.72;6.00;;;;;;;;;;4921210;29;20217;-87
2024/03/02 08:56:08;;;;;;;8.60;6.47;;;;;;;;;;4933274;29;20248;-86
2024/03/02 08:58:37;;;;;;;8.38;6.70;;;;;;;;;;4929171;29;20244;-86
2024/03/02 09:01:07;;;;;;;7.63;7.00;;;;;;;;;;4935459;29;20220;-86
2024/03/02 09:03:41;;;;;;;9.77;8.52;;;;;;;;;;4946135;29;20212;-85
2024/03/02 09:06:19;;;;;;;8.70;7.80;;;;;;;;;;4926786;29;20228;-86
2024/03/02 09:08:53;;;;;;;7.43;6.72;;;;;;;;;;4928900;29;20208;-86
2024/03/02 09:11:25;;;;;;;8.48;7.43;;;;;;;;;;4939334;29;20213;-85
2024/03/02 09:13:55;;;;;;;8.13;7.30;;;;;;;;;;4914931;29;20213;-84
2024/03/02 09:16:30;;;;;;;9.15;8.23;;;;;;;;;;4935386;29;20247;-85
2024/03/02 09:19:01;;;;;;;10.05;8.50;;;;;;;;;;4927540;29;20572;-86
2024/03/02 09:21:32;;;;;;;9.48;8.02;;;;;;;;;;4934258;29;20226;-87
2024/03/02 09:24:02;;;;;;;8.35;7.65;;;;;;;;;;4942116;29;20351;-86
2024/03/02 09:26:31;;;;;;;8.75;7.85;;;;;;;;;;4931852;29;20205;-86
2024/03/02 09:29:01;;;;;;;8.25;7.45;;;;;;;;;;4932586;29;20209;-86
2024/03/02 09:31:30;;;;;;;10.55;8.85;;;;;;;;;;4910325;29;20216;-86
2024/03/02 09:33:59;;;;;;;12.40;11.13;;;;;;;;;;4930215;29;20367;-86
2024/03/02 09:36:28;;;;;;;8.65;7.85;;;;;;;;;;4924182;29;20232;-86
2024/03/02 09:39:01;;;;;;;8.27;7.47;;;;;;;;;;4942782;29;20743;-85
2024/03/02 09:41:30;;;;;;;8.85;7.43;;;;;;;;;;4918239;29;20582;-85
2024/03/02 09:43:59;;;;;;;9.20;7.47;;;;;;;;;;4940445;29;20215;-86
2024/03/02 09:46:29;;;;;;;9.00;8.10;;;;;;;;;;4935119;29;20687;-86
2024/03/02 09:48:57;;;;;;;8.07;7.38;;;;;;;;;;4924314;29;20216;-86
2024/03/02 09:51:26;;;;;;;9.03;8.23;;;;;;;;;;4938689;29;20672;-86
2024/03/02 09:53:55;;;;;;;9.50;8.68;;;;;;;;;;4947931;29;20643;-87
2024/03/02 09:56:25;;;;;;;9.20;8.07;;;;;;;;;;4905853;29;20236;-86
2024/03/02 09:58:53;;;;;;;9.33;8.43;;;;;;;;;;4915171;29;21396;-86
2024/03/02 10:01:22;;;;;;;10.25;9.18;;;;;;;;;;4927875;29;20700;-85
2024/03/02 10:03:52;;;;;;;10.77;9.68;;;;;;;;;;4908977;29;20590;-85
2024/03/02 10:06:21;;;;;;;8.13;7.53;;;;;;;;;;4940150;29;20201;-86
2024/03/02 10:08:50;;;;;;;8.73;8.03;;;;;;;;;;4927232;29;20246;-86
2024/03/02 10:11:32;;;;;;;9.17;8.40;;;;;;;;;;4948073;29;20690;-85
2024/03/02 10:14:07;;;;;;;9.30;8.47;;;;;;;;;;4949126;29;20687;-86
2024/03/02 10:16:39;;;;;;;8.47;7.87;;;;;;;;;;4937365;29;20643;-85
2024/03/02 10:19:18;;;;;;;9.00;8.40;;;;;;;;;;4936587;29;20635;-85
2024/03/02 10:21:47;;;;;;;8.00;7.53;;;;;;;;;;4921797;29;20616;-86
2024/03/02 10:24:15;;;;;;;9.77;9.07;;;;;;;;;;4928441;29;20631;-85
2024/03/02 10:26:46;;;;;;;10.40;9.60;;;;;;;;;;4937894;29;21463;-86
2024/03/02 10:29:14;;;;;;;9.97;9.27;;;;;;;;;;4928906;29;20635;-86
2024/03/02 10:31:45;;;;;;;9.40;8.70;;;;;;;;;;4937092;29;20722;-86
2024/03/02 10:34:15;;;;;;;9.53;8.93;;;;;;;;;;4924885;29;20638;-85
2024/03/02 10:36:45;;;;;;;10.87;10.27;;;;;;;;;;4934048;29;20623;-85
2024/03/02 10:39:14;;;;;;;10.53;9.90;;;;;;;;;;4936393;29;21157;-85
2024/03/02 10:41:42;;;;;;;10.77;10.17;;;;;;;;;;4936950;29;21191;-85
2024/03/02 10:44:13;;;;;;;9.20;8.70;;;;;;;;;;4940607;29;21259;-85
2024/03/02 10:46:42;;;;;;;9.80;9.23;;;;;;;;;;4924170;29;20628;-84
2024/03/02 10:49:11;;;;;;;9.73;9.23;;;;;;;;;;4923627;29;20670;-85
2024/03/02 10:51:39;;;;;;;10.63;9.70;;;;;;;;;;4942897;29;20710;-86
2024/03/02 10:54:08;;;;;;;11.10;10.40;;;;;;;;;;4942417;28;20633;-86
2024/03/02 10:56:40;;;;;;;11.13;10.27;;;;;;;;;;4921216;29;20690;-85
2024/03/02 10:59:12;;;;;;;10.93;10.10;;;;;;;;;;4928417;29;20644;-86
2024/03/02 11:01:45;;;;;;;11.83;10.83;;;;;;;;;;4944578;29;20635;-86
2024/03/02 11:04:14;;;;;;;9.57;9.07;;;;;;;;;;4946526;29;20997;-86
2024/03/02 11:06:48;;;;;;;10.33;9.73;;;;;;;;;;4911703;29;21177;-86
2024/03/02 11:09:16;;;;;;;10.10;9.43;;;;;;;;;;4927649;29;20644;-87
2024/03/02 11:11:45;;;;;;;12.03;11.13;;;;;;;;;;4929702;29;20635;-87
2024/03/02 11:14:15;;;;;;;11.80;11.10;;;;;;;;;;4926311;29;20699;-84
2024/03/02 11:16:46;;;;;;;12.77;12.07;;;;;;;;;;4915560;29;20664;-88
2024/03/02 11:19:15;;;;;;;14.40;13.53;;;;;;;;;;4943397;29;20628;-86
2024/03/02 11:21:45;;;;;;;13.37;12.57;;;;;;;;;;4931920;29;20706;-87
2024/03/02 11:24:36;;;;;;;14.57;13.80;;;;;;;;;;4925548;29;20629;-86
2024/03/02 11:27:12;;;;;;;14.60;13.47;;;;;;;;;;4937916;29;20633;-86
2024/03/02 11:29:57;;;;;;;13.90;13.20;;;;;;;;;;5131379;27;1281258;-84
2024/03/02 11:32:25;;;;;;;15.40;14.60;;;;;;;;;;5150678;27;20626;-87
2024/03/02 11:34:54;;;;;;;13.70;13.10;;;;;;;;;;5157001;27;20702;-85
2024/03/02 11:37:22;;;;;;;15.20;14.40;;;;;;;;;;5138500;27;20618;-85
2024/03/02 11:39:52;;;;;;;15.23;14.47;;;;;;;;;;5137242;27;20618;-86
2024/03/02 11:42:21;;;;;;;16.13;15.10;;;;;;;;;;5137957;27;20726;-86
2024/03/02 11:44:50;;;;;;;15.17;14.37;;;;;;;;;;5155714;27;20756;-85
2024/03/02 11:47:20;;;;;;;15.10;14.40;;;;;;;;;;5156208;27;21265;-86
2024/03/02 11:49:51;;;;;;;15.10;14.40;;;;;;;;;;5138175;27;20736;-87
2024/03/02 11:52:20;;;;;;;19.30;18.13;;;;;;;;;;5147813;27;20619;-87
2024/03/02 11:54:51;;;;;;;18.73;17.53;;;;;;;;;;5138226;27;20729;-87
2024/03/02 11:57:20;;;;;;;16.47;15.77;;;;;;;;;;5151772;27;20714;-86
2024/03/02 11:59:49;;;;;;;15.07;14.17;;;;;;;;;;5142957;27;20717;-85
2024/03/02 12:02:18;;;;;;;14.20;13.60;;;;;;;;;;5146737;27;20643;-86
2024/03/02 12:04:49;;;;;;;14.20;13.60;;;;;;;;;;5150192;27;20691;-86
2024/03/02 12:07:22;;;;;;;13.77;13.27;;;;;;;;;;5122996;27;20615;-83
2024/03/02 12:09:51;;;;;;;14.13;13.47;;;;;;;;;;5149695;27;20648;-84
2024/03/02 12:12:22;;;;;;;14.90;14.20;;;;;;;;;;5140871;27;20716;-86
2024/03/02 12:14:55;;;;;;;14.30;13.80;;;;;;;;;;5139950;27;20606;-85
2024/03/02 12:17:24;;;;;;;14.77;14.10;;;;;;;;;;5143716;27;20698;-86
2024/03/02 12:19:54;;;;;;;14.37;13.73;;;;;;;;;;5150484;27;21006;-86
2024/03/02 12:22:23;;;;;;;14.40;13.80;;;;;;;;;;5150749;27;20694;-86
2024/03/02 12:24:52;;;;;;;14.30;13.70;;;;;;;;;;5144572;27;20695;-85
2024/03/02 12:27:21;;;;;;;14.10;13.60;;;;;;;;;;5137775;28;20630;-86
2024/03/02 12:30:00;;;;;;;14.20;13.50;;;;;;;;;;5138024;27;20782;-86
2024/03/02 12:32:28;;;;;;;14.37;13.77;;;;;;;;;;5155548;27;20630;-85
2024/03/02 12:34:59;;;;;;;14.10;13.50;;;;;;;;;;5138749;27;21228;-86
2024/03/02 12:37:28;;;;;;;14.10;13.60;;;;;;;;;;5148200;27;20639;-85
2024/03/02 12:39:56;;;;;;;14.90;14.30;;;;;;;;;;5129921;28;20777;-84
2024/03/02 12:42:25;;;;;;;14.47;13.90;;;;;;;;;;5109783;27;20626;-84
2024/03/02 12:44:55;;;;;;;14.10;13.60;;;;;;;;;;5120913;27;20615;-85
2024/03/02 12:47:24;;;;;;;14.37;13.80;;;;;;;;;;5144915;27;20725;-85
2024/03/02 12:49:54;;;;;;;14.67;14.07;;;;;;;;;;5130300;27;20663;-86
2024/03/02 12:52:23;;;;;;;15.10;14.40;;;;;;;;;;5127150;27;20615;-86
2024/03/02 12:54:52;;;;;;;14.17;13.57;;;;;;;;;;5130566;27;20642;-86
2024/03/02 12:57:20;;;;;;;14.20;13.63;;;;;;;;;;5119657;27;20628;-86
2024/03/02 12:59:52;;;;;;;14.10;13.60;;;;;;;;;;5129495;27;21241;-86
2024/03/02 13:02:20;;;;;;;14.13;13.37;;;;;;;;;;5119264;27;20620;-86
2024/03/02 13:04:54;;;;;;;13.10;12.60;;;;;;;;;;5126656;27;20665;-86
2024/03/02 13:07:24;;;;;;;13.17;12.67;;;;;;;;;;5126033;27;20607;-85
2024/03/02 13:09:52;;;;;;;14.40;13.80;;;;;;;;;;5126408;27;20657;-87
2024/03/02 13:12:21;;;;;;;13.40;12.90;;;;;;;;;;5127579;27;20635;-86
2024/03/02 13:14:51;;;;;;;13.00;12.50;;;;;;;;;;5122402;27;20630;-85
2024/03/02 13:17:19;;;;;;;13.07;12.60;;;;;;;;;;5130703;27;20619;-85
2024/03/02 13:19:54;;;;;;;12.60;12.17;;;;;;;;;;5120849;27;21236;-86
2024/03/02 13:22:24;;;;;;;13.00;12.50;;;;;;;;;;5116930;27;20599;-86
2024/03/02 13:24:54;;;;;;;13.13;12.63;;;;;;;;;;5123112;27;20683;-86
2024/03/02 13:27:22;;;;;;;12.97;12.47;;;;;;;;;;5113903;28;21173;-86
2024/03/02 13:29:51;;;;;;;13.23;12.70;;;;;;;;;;5122563;27;20667;-85
2024/03/02 13:32:23;;;;;;;13.00;12.50;;;;;;;;;;5118878;27;20621;-86
2024/03/02 13:34:51;;;;;;;12.53;12.13;;;;;;;;;;5116494;27;21192;-86
2024/03/02 13:37:19;;;;;;;13.40;12.90;;;;;;;;;;5126310;27;21170;-86
2024/03/02 13:39:49;;;;;;;13.90;13.40;;;;;;;;;;5125783;27;20624;-86
2024/03/02 13:42:18;;;;;;;13.60;13.10;;;;;;;;;;5128772;27;20712;-85
2024/03/02 13:44:49;;;;;;;13.10;12.70;;;;;;;;;;5136517;27;20710;-85
2024/03/02 13:47:18;;;;;;;13.53;13.03;;;;;;;;;;5125365;27;21178;-85
2024/03/02 13:49:46;;;;;;;13.77;12.97;;;;;;;;;;5135029;27;20734;-85
2024/03/02 13:52:14;;;;;;;13.10;12.63;;;;;;;;;;5138989;27;20717;-84
2024/03/02 13:54:44;;;;;;;13.17;12.73;;;;;;;;;;5117565;27;21206;-86
2024/03/02 13:57:14;;;;;;;13.10;12.70;;;;;;;;;;5137559;27;20768;-85
2024/03/02 13:59:43;;;;;;;13.37;12.87;;;;;;;;;;5124597;27;21247;-85
2024/03/02 14:02:13;;;;;;;13.73;13.20;;;;;;;;;;5134992;27;20708;-84
2024/03/02 14:04:41;;;;;;;13.67;12.90;;;;;;;;;;5131741;27;21210;-85
2024/03/02 14:07:10;;;;;;;13.60;13.00;;;;;;;;;;5135706;27;21397;-84
2024/03/02 14:09:39;;;;;;;12.80;12.30;;;;;;;;;;5104383;27;21337;-84
2024/03/02 14:12:08;;;;;;;13.40;12.90;;;;;;;;;;5125400;27;20620;-85
2024/03/02 14:14:38;;;;;;;14.20;13.50;;;;;;;;;;5129542;27;20731;-83
2024/03/02 14:17:10;;;;;;;15.23;14.63;;;;;;;;;;5131960;27;20679;-84
2024/03/02 14:19:40;;;;;;;14.83;13.70;;;;;;;;;;5133936;27;20624;-83
2024/03/02 14:22:09;;;;;;;13.70;13.13;;;;;;;;;;5123259;27;20615;-83
2024/03/02 14:24:37;;;;;;;13.80;13.30;;;;;;;;;;5129864;27;20630;-85
2024/03/02 14:27:06;;;;;;;14.43;13.80;;;;;;;;;;5136135;27;21078;-84
2024/03/02 14:29:37;;;;;;;14.10;13.60;;;;;;;;;;5120795;27;20681;-85
2024/03/02 14:32:07;;;;;;;14.90;14.20;;;;;;;;;;5127860;27;21177;-84
2024/03/02 14:34:35;;;;;;;15.40;14.60;;;;;;;;;;5133122;27;21041;-86
2024/03/02 14:37:04;;;;;;;15.47;14.60;;;;;;;;;;5128605;27;21268;-84
2024/03/02 14:39:34;;;;;;;14.70;14.00;;;;;;;;;;5118201;28;20619;-84
2024/03/02 14:42:02;;;;;;;15.27;14.00;;;;;;;;;;5126331;27;20714;-84
2024/03/02 14:44:31;;;;;;;15.53;14.83;;;;;;;;;;5103751;27;20692;-86